Flight Track Log - Related Links

Times and Time Zones

All times are in EDT time to prevent confusion due to time zone crossing. See the N769MB flight status page for this flight to view local times or setup timezone preferences in your user account.

Time Position Orientation Groundspeed Altitude Reporting Facility
EDT Latitude Longitude Course Direction KTS MPH feet Rate Location/Type
Thu 06:47:26 PM 34.9861 -86.6083 303° West 173 199 6,300  Level Memphis Center
Thu 06:48:26 PM 35.0103 -86.6531 303° West 179 206 8,100 1,700 Climbing Memphis Center
Thu 06:49:26 PM 35.0328 -86.7078 297° West 185 213 9,700 1,700 Climbing Memphis Center
Thu 06:50:26 PM 35.0656 -86.7569 309° West 185 213 11,500 1,140 Climbing Memphis Center
Thu 06:51:27 PM 35.1067 -86.8086 314° West 197 227 12,000 250 Climbing Memphis Center
Thu 06:52:26 PM 35.1661 -86.8417 323° Northwest 219 252 12,000  Level Memphis Center
Thu 06:53:26 PM 35.2114 -86.8983 314° West 234 269 12,000  Level Memphis Center
Thu 06:54:26 PM 35.2528 -86.9575 311° West 229 264 12,000  Level Memphis Center
Thu 06:55:26 PM 35.2817 -87.0275 297° West 229 264 12,000  Level Memphis Center
Thu 06:56:26 PM 35.3089 -87.1028 294° West 235 270 12,000  Level Memphis Center
Thu 06:57:26 PM 35.3317 -87.1833 289° West 246 283 12,000  Level Memphis Center
Thu 06:58:26 PM 35.3586 -87.2611 293° West 251 289 12,000  Level Memphis Center
Thu 06:59:26 PM 35.3836 -87.3417 291° West 251 289 12,000  Level Memphis Center
Thu 07:00:26 PM 35.4042 -87.4100 290° West 251 289 12,000 -350 Level Memphis Center
Thu 07:01:26 PM 35.4331 -87.4903 294° West 251 289 11,300 -900 Descending Memphis Center
Thu 07:02:26 PM 35.4600 -87.5761 291° West 263 303 10,200 -1,200 Descending Memphis Center
Thu 07:03:26 PM 35.4869 -87.6619 291° West 268 308 8,900 -1,350 Descending Memphis Center
Thu 07:04:26 PM 35.5161 -87.7528 292° West 263 303 7,500 -1,400 Descending Memphis Center
Thu 07:05:26 PM 35.5406 -87.8336 290° West 268 308 6,100 -1,450 Descending Memphis Center
Thu 07:06:26 PM 35.5694 -87.9119 294° West 262 302 4,600 -1,450 Descending Memphis Center
Thu 07:07:26 PM 35.5894 -87.9853 289° West 246 283 3,200 -1,400 Descending Memphis Center

Login

Don't have an account? Register now (free) for customized features, flight alerts, and more!